This is the latest recevied weather packets stored in our database for station/object KC7UNY-13. If no packets are shown the sender has not sent any weather packets the latest 10 day(s).
| Time | Temp. | Humidity | Pressure | Rain* | Wind** | Luminosity | Snow |
|---|---|---|---|---|---|---|---|
| 1777449582 | 17.22° C | 40% | 1014.4 hPa | 0 mm | - | 0 W/m² | - |
| 1777449278 | 17.78° C | 39% | 1014.6 hPa | 0 mm | - | 0 W/m² | - |
| 1777448973 | 17.78° C | 38% | 1014.4 hPa | 0 mm | - | 0 W/m² | - |
| 1777448671 | 17.22° C | 38% | 1014.5 hPa | 0 mm | - | 0 W/m² | - |
| 1777448368 | 16.67° C | 40% | 1014.6 hPa | 0 mm | - | 0 W/m² | - |
| 1777448064 | 17.22° C | 40% | 1014.6 hPa | 0 mm | - | 0 W/m² | - |
| 1777447759 | 17.22° C | 40% | 1014.7 hPa | 0 mm | - | 0 W/m² | - |
| 1777447455 | 17.78° C | 38% | 1014.5 hPa | 0 mm | - | 0 W/m² | - |
| 1777447152 | 17.78° C | 39% | 1014.8 hPa | 0 mm | - | 0 W/m² | - |
| 1777446852 | 17.78° C | 36% | 1014.7 hPa | 0 mm | - | 0 W/m² | - |
| 1777446548 | 17.78° C | 37% | 1014.9 hPa | 0 mm | - | 0 W/m² | - |
| 1777446244 | 17.78° C | 37% | 1014.7 hPa | 0 mm | - | 0 W/m² | - |
| 1777445942 | 17.78° C | 37% | 1014.8 hPa | 0 mm | - | 0 W/m² | - |
| 1777445642 | 18.33° C | 37% | 1014.7 hPa | 0 mm | - | 0 W/m² | - |
| 1777445338 | 18.33° C | 37% | 1014.7 hPa | 0 mm | - | 0 W/m² | - |
| 1777445034 | 18.33° C | 37% | 1014.5 hPa | 0 mm | - | 0 W/m² | - |
| 1777444730 | 18.33° C | 37% | 1014.5 hPa | 0 mm | - | 0 W/m² | - |
| 1777444427 | 18.89° C | 36% | 1014.5 hPa | 0 mm | - | 0 W/m² | - |
| 1777444125 | 18.89° C | 35% | 1014.6 hPa | 0 mm | - | 0 W/m² | - |
| 1777443820 | 18.89° C | 36% | 1014.6 hPa | 0 mm | - | 0 W/m² | - |
| 1777443515 | 18.89° C | 37% | 1014.5 hPa | 0 mm | - | 0 W/m² | - |
| 1777443212 | 19.44° C | 35% | 1014.5 hPa | 0 mm | - | 0 W/m² | - |
| 1777442909 | 20° C | 33% | 1014.3 hPa | 0 mm | - | 0 W/m² | - |
| 1777442605 | 20° C | 33% | 1014.3 hPa | 0 mm | - | 0 W/m² | - |
| 1777442301 | 20° C | 31% | 1014.4 hPa | 0 mm | - | 0 W/m² | - |
* Rain latest hour (hover to see other rain measurements)
** Current wind speed in m/s (hover to see current wind gust speed)